| time (UTC) | temp C | wind direction | speed KPH | gust KPH | rain 1hr cm | rain 24hr cm | rain mn cm | humidity % | barometer mb |
| 20260903073508 | 21 | 190 | 4.8 | 8.0 | 0.00 | 0.00 | 0.00 | 65 | 1021.8 |
| 20260903072508 | 20 | 170 | 4.8 | 9.7 | 0.00 | 0.00 | 0.00 | 68 | 1021.9 |
| 20260903071122 | 20 | 180 | 4.8 | 9.7 | 0.00 | 0.00 | 0.00 | 68 | 1021.8 |
| 20260903070509 | 19 | 160 | 8.0 | 9.7 | 0.00 | 0.00 | 0.00 | 68 | 1022.0 |
| 20260903065509 | 18 | 160 | 4.8 | 9.7 | 0.00 | 0.00 | 0.00 | 69 | 1022.0 |
| 20260903064121 | 18 | 180 | 3.2 | 4.8 | 0.00 | 0.00 | 0.00 | 74 | 1022.2 |
| 20260903063508 | 17 | 190 | 3.2 | 4.8 | 0.00 | 0.00 | 0.00 | 77 | 1022.4 |
| 20260903062509 | 17 | 190 | 3.2 | 8.0 | 0.00 | 0.00 | 0.00 | 79 | 1022.5 |
| 20260903061122 | 16 | 180 | 4.8 | 8.0 | 0.00 | 0.00 | 0.00 | 80 | 1022.5 |
| 20260903060509 | 16 | 180 | 4.8 | 4.8 | 0.00 | 0.00 | 0.00 | 81 | 1022.4 |
| 20260903055508 | 16 | 170 | 3.2 | 4.8 | 0.00 | 0.00 | 0.00 | 82 | 1022.4 |
| 20260903054121 | 16 | 190 | 3.2 | 4.8 | 0.00 | 0.00 | 0.00 | 83 | 1022.4 |
| 20260903053508 | 15 | 200 | 3.2 | 4.8 | 0.00 | 0.00 | 0.00 | 83 | 1022.5 |
| 20260903052509 | 15 | 170 | 3.2 | 4.8 | 0.00 | 0.00 | 0.00 | 84 | 1022.4 |
| 20260903051122 | 15 | 170 | 4.8 | 4.8 | 0.00 | 0.00 | 0.00 | 86 | 1022.4 |
| 20260903050508 | 15 | 170 | 4.8 | 8.0 | 0.00 | 0.00 | 0.00 | 85 | 1022.3 |
| 20260903045509 | 15 | 170 | 4.8 | 9.7 | 0.00 | 0.00 | 0.00 | 85 | 1022.4 |
| 20260903044121 | 15 | 160 | 8.0 | 11.3 | 0.00 | 0.00 | 0.00 | 85 | 1022.3 |
| 20260903043508 | 15 | 170 | 9.7 | 11.3 | 0.00 | 0.00 | 0.00 | 86 | 1022.3 |
| 20260903042509 | 15 | 180 | 8.0 | 9.7 | 0.00 | 0.00 | 0.00 | 85 | 1022.2 |
| 20260903041121 | 15 | 170 | 3.2 | 8.0 | 0.00 | 0.00 | 0.00 | 85 | 1022.2 |
| 20260903040509 | 15 | 160 | 4.8 | 11.3 | 0.00 | 0.00 | 0.00 | 86 | 1022.2 |
| 20260903035509 | 14 | 170 | 8.0 | 11.3 | 0.00 | 0.00 | 0.00 | 88 | 1022.2 |
| 20260903034508 | 15 | 160 | 3.2 | 8.0 | 0.00 | 0.00 | 0.00 | 85 | 1022.1 |
| 20260903033508 | 15 | 170 | 4.8 | 8.0 | 0.00 | 0.00 | 0.00 | 83 | 1022.0 |
| 20260903032509 | 15 | 160 | 4.8 | 8.0 | 0.00 | 0.00 | 0.00 | 83 | 1022.1 |
| 20260903031122 | 15 | 160 | 4.8 | 8.0 | 0.00 | 0.00 | 0.00 | 83 | 1022.0 |
| 20260903030509 | 16 | 170 | 4.8 | 8.0 | 0.00 | 0.00 | 0.00 | 81 | 1021.9 |
| 20260903025509 | 15 | 160 | 4.8 | 9.7 | 0.00 | 0.00 | 0.00 | 82 | 1022.0 |
| 20260903024509 | 15 | 170 | 8.0 | 9.7 | 0.00 | 0.00 | 0.00 | 83 | 1022.0 |
| 20260903023509 | 16 | 200 | 3.2 | 9.7 | 0.00 | 0.00 | 0.00 | 80 | 1021.9 |
| 20260903022509 | 16 | 150 | 3.2 | 9.7 | 0.00 | 0.00 | 0.00 | 78 | 1021.7 |
| 20260903021122 | 17 | 100 | 4.8 | 9.7 | 0.00 | 0.00 | 0.00 | 76 | 1021.5 |
| 20260903020509 | 17 | 80 | 3.2 | 4.8 | 0.00 | 0.00 | 0.00 | 76 | 1021.5 |
| 20260903015509 | 16 | 120 | 3.2 | 8.0 | 0.00 | 0.00 | 0.00 | 77 | 1021.4 |
| 20260903014121 | 17 | 130 | 4.8 | 8.0 | 0.00 | 0.00 | 0.00 | 76 | 1021.4 |
| 20260903013508 | 16 | 360 | 1.6 | 11.3 | 0.00 | 0.00 | 0.00 | 79 | 1021.4 |
| 20260903012508 | 17 | 150 | 4.8 | 12.9 | 0.00 | 0.00 | 0.00 | 76 | 1021.2 |
| 20260903011122 | 17 | 160 | 9.7 | 17.7 | 0.00 | 0.00 | 0.00 | 78 | 1021.2 |
| 20260903010509 | 17 | 160 | 12.9 | 17.7 | 0.00 | 0.00 | 0.00 | 76 | 1021.1 |
| 20260903005509 | 17 | 170 | 9.7 | 14.5 | 0.00 | 0.00 | 0.00 | 76 | 1021.1 |
| 20260903004122 | 17 | 190 | 8.0 | 9.7 | 0.00 | 0.00 | 0.00 | 76 | 1021.0 |
| 20260903003509 | 17 | 190 | 4.8 | 11.3 | 0.00 | 0.00 | 0.00 | 77 | 1021.2 |
| 20260903002509 | 16 | 170 | 9.7 | 11.3 | 0.00 | 0.00 | 0.00 | 81 | 1021.1 |
| 20260903001521 | 16 | 170 | 9.7 | 11.3 | 0.00 | 0.00 | 0.00 | 82 | 1021.2 |
| 20260903000508 | 16 | 160 | 8.0 | 11.3 | 0.00 | 0.00 | 0.00 | 81 | 1021.2 |
| 20260902235508 | 15 | 170 | 9.7 | 11.3 | 0.00 | 0.00 | 0.00 | 84 | 1021.4 |
| 20260902234122 | 15 | 180 | 9.7 | 12.9 | 0.00 | 0.00 | 0.00 | 84 | 1021.4 |
| 20260902233508 | 15 | 160 | 11.3 | 12.9 | 0.00 | 0.00 | 0.00 | 86 | 1021.6 |
| 20260902232508 | 15 | 170 | 11.3 | 12.9 | 0.00 | 0.00 | 0.00 | 86 | 1021.6 |
| 20260902231509 | 15 | 180 | 9.7 | 14.5 | 0.00 | 0.00 | 0.00 | 87 | 1021.7 |
| 20260902230509 | 15 | 170 | 11.3 | 14.5 | 0.00 | 0.00 | 0.00 | 86 | 1021.6 |
| 20260902225509 | 16 | 170 | 12.9 | 14.5 | 0.00 | 0.00 | 0.00 | 83 | 1021.5 |
| 20260902224122 | 16 | 170 | 9.7 | 11.3 | 0.00 | 0.00 | 0.00 | 79 | 1021.4 |
| 20260902223509 | 15 | 170 | 9.7 | 11.3 | 0.00 | 0.00 | 0.00 | 85 | 1021.6 |
| 20260902222509 | 15 | 160 | 4.8 | 9.7 | 0.00 | 0.00 | 0.00 | 85 | 1021.4 |
| 20260902221122 | 16 | 160 | 8.0 | 9.7 | 0.00 | 0.00 | 0.00 | 84 | 1021.4 |
| 20260902220508 | 16 | 160 | 8.0 | 9.7 | 0.00 | 0.00 | 0.00 | 83 | 1021.2 |
| 20260902215509 | 15 | 190 | 4.8 | 8.0 | 0.00 | 0.00 | 0.00 | 85 | 1021.4 |
| 20260902214122 | 16 | 180 | 4.8 | 8.0 | 0.00 | 0.00 | 0.00 | 83 | 1021.2 |
| 20260902213508 | 16 | 210 | 3.2 | 8.0 | 0.00 | 0.00 | 0.00 | 84 | 1021.1 |
| 20260902211122 | 17 | 180 | 8.0 | 9.7 | 0.00 | 0.00 | 0.00 | 77 | 1020.7 |
| 20260902210509 | 18 | 160 | 8.0 | 11.3 | 0.00 | 0.00 | 0.00 | 74 | 1020.5 |
| 20260902205509 | 18 | 190 | 8.0 | 11.3 | 0.00 | 0.00 | 0.00 | 74 | 1020.4 |
| 20260902204123 | 18 | 150 | 8.0 | 9.7 | 0.00 | 0.00 | 0.00 | 72 | 1020.5 |
| 20260902203508 | 18 | 170 | 3.2 | 4.8 | 0.00 | 0.00 | 0.00 | 75 | 1020.4 |
| 20260902202509 | 18 | 190 | 4.8 | 8.0 | 0.00 | 0.00 | 0.00 | 78 | 1020.4 |
| 20260902201122 | 18 | 170 | 4.8 | 11.3 | 0.00 | 0.00 | 0.00 | 77 | 1020.4 |
| 20260902200509 | 18 | 160 | 8.0 | 11.3 | 0.00 | 0.00 | 0.00 | 77 | 1020.4 |
| 20260902195509 | 18 | 170 | 9.7 | 11.3 | 0.00 | 0.00 | 0.00 | 74 | 1020.2 |
| 20260902194122 | 18 | 160 | 9.7 | 11.3 | 0.00 | 0.00 | 0.00 | 75 | 1020.3 |
| 20260902193509 | 18 | 160 | 8.0 | 11.3 | 0.00 | 0.00 | 0.00 | 76 | 1020.2 |
| 20260902192508 | 18 | 220 | 4.8 | 8.0 | 0.00 | 0.00 | 0.00 | 74 | 1020.2 |
| 20260902191122 | 19 | 200 | 4.8 | 9.7 | 0.00 | 0.00 | 0.00 | 71 | 1020.0 |
| 20260902190508 | 19 | 160 | 8.0 | 9.7 | 0.00 | 0.00 | 0.00 | 72 | 1019.9 |
| 20260902185509 | 19 | 180 | 4.8 | 9.7 | 0.00 | 0.00 | 0.00 | 72 | 1019.7 |
| 20260902184122 | 19 | 320 | 3.2 | 4.8 | 0.00 | 0.00 | 0.00 | 74 | 1019.8 |
| 20260902183509 | 20 | 310 | 3.2 | 4.8 | 0.00 | 0.00 | 0.00 | 70 | 1019.5 |
| 20260902182509 | 21 | 260 | 3.2 | 8.0 | 0.00 | 0.00 | 0.00 | 63 | 1019.1 |
| 20260902181122 | 21 | 280 | 4.8 | 9.7 | 0.00 | 0.00 | 0.00 | 63 | 1019.1 |
| 20260902180509 | 22 | 340 | 4.8 | 9.7 | 0.00 | 0.00 | 0.00 | 54 | 1018.9 |
| 20260902175509 | 21 | 340 | 4.8 | 8.0 | 0.00 | 0.00 | 0.00 | 58 | 1018.7 |
| 20260902174122 | 22 | 320 | 4.8 | 8.0 | 0.00 | 0.00 | 0.00 | 58 | 1018.6 |
| 20260902173508 | 22 | 310 | 3.2 | 4.8 | 0.00 | 0.00 | 0.00 | 55 | 1018.5 |
| 20260902172509 | 22 | 340 | 3.2 | 4.8 | 0.00 | 0.00 | 0.00 | 55 | 1018.4 |
| 20260902171122 | 23 | 20 | 3.2 | 8.0 | 0.00 | 0.00 | 0.00 | 51 | 1018.3 |
| 20260902170509 | 23 | 40 | 3.2 | 9.7 | 0.00 | 0.00 | 0.00 | 49 | 1018.1 |
| 20260902165509 | 23 | 20 | 4.8 | 9.7 | 0.00 | 0.00 | 0.00 | 49 | 1018.2 |
| 20260902164122 | 23 | 340 | 4.8 | 11.3 | 0.00 | 0.00 | 0.00 | 50 | 1018.0 |
| 20260902163509 | 24 | 350 | 8.0 | 12.9 | 0.00 | 0.00 | 0.00 | 48 | 1018.0 |
| 20260902162509 | 24 | 350 | 4.8 | 16.1 | 0.00 | 0.00 | 0.00 | 49 | 1018.0 |
| 20260902161122 | 24 | 10 | 9.7 | 16.1 | 0.00 | 0.00 | 0.00 | 48 | 1018.1 |
| 20260902160508 | 24 | 360 | 9.7 | 17.7 | 0.00 | 0.00 | 0.00 | 50 | 1018.1 |
| 20260902155509 | 25 | 340 | 11.3 | 20.9 | 0.00 | 0.00 | 0.00 | 50 | 1018.1 |
| 20260902154122 | 24 | 350 | 9.7 | 24.1 | 0.00 | 0.00 | 0.00 | 48 | 1018.2 |
| 20260902153509 | 24 | 360 | 12.9 | 24.1 | 0.00 | 0.00 | 0.00 | 48 | 1018.3 |
| 20260902152508 | 24 | 340 | 8.0 | 20.9 | 0.00 | 0.00 | 0.00 | 48 | 1018.1 |
| 20260902151122 | 25 | 310 | 14.5 | 20.9 | 0.00 | 0.00 | 0.00 | 49 | 1018.2 |
| 20260902150509 | 25 | 330 | 11.3 | 22.5 | 0.00 | 0.00 | 0.00 | 49 | 1018.2 |
| 20260902145509 | 25 | 340 | 11.3 | 22.5 | 0.00 | 0.00 | 0.00 | 49 | 1018.3 |
| 20260902144122 | 25 | 310 | 9.7 | 14.5 | 0.00 | 0.00 | 0.00 | 47 | 1018.3 |
| 20260902143508 | 25 | 20 | 8.0 | 14.5 | 0.00 | 0.00 | 0.00 | 48 | 1018.4 |
| 20260902142509 | 25 | 40 | 9.7 | 16.1 | 0.00 | 0.00 | 0.00 | 47 | 1018.5 |
| 20260902141122 | 24 | 10 | 9.7 | 16.1 | 0.00 | 0.00 | 0.00 | 49 | 1018.6 |
| 20260902140509 | 24 | 350 | 9.7 | 24.1 | 0.00 | 0.00 | 0.00 | 48 | 1018.6 |
| 20260902135509 | 24 | 10 | 12.9 | 24.1 | 0.00 | 0.00 | 0.00 | 48 | 1018.6 |
| 20260902134120 | 25 | 330 | 12.9 | 17.7 | 0.00 | 0.00 | 0.00 | 48 | 1018.5 |
| 20260902133509 | 25 | 340 | 11.3 | 20.9 | 0.00 | 0.00 | 0.00 | 48 | 1018.7 |
| 20260902132509 | 24 | 320 | 12.9 | 20.9 | 0.00 | 0.00 | 0.00 | 49 | 1018.9 |
| 20260902131122 | 24 | 310 | 14.5 | 22.5 | 0.00 | 0.00 | 0.00 | 48 | 1018.8 |
| 20260902130509 | 24 | 330 | 12.9 | 22.5 | 0.00 | 0.00 | 0.00 | 45 | 1019.0 |
| 20260902125509 | 24 | 320 | 11.3 | 17.7 | 0.00 | 0.00 | 0.00 | 46 | 1019.0 |
| 20260902124121 | 24 | 320 | 11.3 | 17.7 | 0.00 | 0.00 | 0.00 | 46 | 1018.9 |
| 20260902123509 | 24 | 320 | 9.7 | 17.7 | 0.00 | 0.00 | 0.00 | 44 | 1019.0 |
| 20260902122509 | 24 | 330 | 11.3 | 20.9 | 0.00 | 0.00 | 0.00 | 50 | 1019.1 |
| 20260902121122 | 23 | 320 | 12.9 | 20.9 | 0.00 | 0.00 | 0.00 | 50 | 1019.3 |
| 20260902120508 | 23 | 350 | 9.7 | 16.1 | 0.00 | 0.00 | 0.00 | 49 | 1019.4 |
| 20260902115508 | 23 | 20 | 8.0 | 16.1 | 0.00 | 0.00 | 0.00 | 51 | 1019.3 |
| 20260902114122 | 24 | 350 | 9.7 | 16.1 | 0.00 | 0.00 | 0.00 | 46 | 1019.3 |
| 20260902113509 | 24 | 320 | 8.0 | 16.1 | 0.00 | 0.00 | 0.00 | 46 | 1019.4 |
| 20260902112509 | 23 | 330 | 11.3 | 16.1 | 0.00 | 0.00 | 0.00 | 50 | 1019.4 |
| 20260902111122 | 23 | 330 | 11.3 | 16.1 | 0.00 | 0.00 | 0.00 | 49 | 1019.6 |
| 20260902110509 | 23 | 320 | 11.3 | 14.5 | 0.00 | 0.00 | 0.00 | 50 | 1019.6 |
| 20260902105508 | 23 | 330 | 9.7 | 14.5 | 0.00 | 0.00 | 0.00 | 50 | 1019.8 |
| 20260902104122 | 23 | 330 | 9.7 | 14.5 | 0.00 | 0.00 | 0.00 | 53 | 1019.8 |
| 20260902103509 | 23 | 340 | 8.0 | 14.5 | 0.00 | 0.00 | 0.00 | 53 | 1020.0 |
| 20260902102508 | 23 | 320 | 8.0 | 14.5 | 0.00 | 0.00 | 0.00 | 54 | 1020.0 |
| 20260902101122 | 22 | 340 | 8.0 | 14.5 | 0.00 | 0.00 | 0.00 | 54 | 1020.1 |
| 20260902100509 | 22 | 300 | 4.8 | 9.7 | 0.00 | 0.00 | 0.00 | 54 | 1020.3 |
| 20260902095509 | 22 | 280 | 4.8 | 11.3 | 0.00 | 0.00 | 0.00 | 52 | 1020.3 |
| 20260902094122 | 22 | 270 | 4.8 | 11.3 | 0.00 | 0.00 | 0.00 | 53 | 1020.4 |
| 20260902093509 | 22 | 250 | 4.8 | 12.9 | 0.00 | 0.00 | 0.00 | 54 | 1020.5 |
| 20260902092508 | 22 | 290 | 8.0 | 12.9 | 0.00 | 0.00 | 0.00 | 56 | 1020.7 |
| 20260902091121 | 22 | 270 | 3.2 | 11.3 | 0.00 | 0.00 | 0.00 | 57 | 1020.7 |
| 20260902090509 | 22 | 330 | 3.2 | 9.7 | 0.00 | 0.00 | 0.00 | 58 | 1020.7 |
| 20260902084121 | 21 | 120 | 3.2 | 4.8 | 0.00 | 0.00 | 0.00 | 55 | 1020.8 |
| 20260902083509 | 20 | 360 | 1.6 | 4.8 | 0.00 | 0.00 | 0.00 | 59 | 1020.9 |
| 20260902082509 | 21 | 360 | 1.6 | 8.0 | 0.00 | 0.00 | 0.00 | 59 | 1021.0 |
| 20260902081121 | 20 | 200 | 3.2 | 9.7 | 0.00 | 0.00 | 0.00 | 60 | 1021.1 |
| 20260902080508 | 20 | 180 | 4.8 | 11.3 | 0.00 | 0.00 | 0.00 | 63 | 1021.1 |
| 20260902075509 | 19 | 180 | 4.8 | 11.3 | 0.00 | 0.00 | 0.00 | 65 | 1021.2 |
| 20260902074122 | 19 | 180 | 8.0 | 12.9 | 0.00 | 0.00 | 0.00 | 68 | 1021.1 |